Carnegie, OK (73015)

4:07 AM CST on February 08, 2016 (GMT -0600)
Carnegie | | Change Station
CLOSE
Current Station
Personal Weather Station
Location: Carnegie, OK
Elevation: 1358 ft
Nearby Weather Stations
Active Advisory: Wind Advisory

Elev 1358 ft 35.14 °N, 98.60 °W | Updated 5 seconds ago

Clear
Clear
34.3 °F
Feels Like 27 °F
N
8.7
Wind Variable Wind from WNW
Gusts 8.7 mph

Today
High -- | Low -- °F
--% Chance of Precip.
Yesterday
High -- | Low -- °F
Precip. -- in
Pressure 30.37 in
Visibility 10.0 miles
Clouds Clear
Windchill 27 °F
Dew Point 13 °F
Humidity 40%
Rainfall Not available.
Snow Depth Not available.
7:27 AM 6:09 PM
Waning Crescent, 0% visible
METAR KHBR 080953Z AUTO 31011KT 10SM CLR 01/M08 A3036 RMK AO2 SLP283 T00061078
Pressure 30.37 in
Visibility 10.0 miles
Clouds Clear
Windchill 27 °F
Dew Point 13 °F
Humidity 40%
Rainfall Not available.
Snow Depth Not available.
7:27 AM 6:09 PM
Waning Crescent, 0% visible
METAR KHBR 080953Z AUTO 31011KT 10SM CLR 01/M08 A3036 RMK AO2 SLP283 T00061078

10-Day Weather Forecast

Almanac

Astronomy

Feb. 08, 2016 Rise Set
Actual Time
Civil Twilight
Nautical Twilight
Astronomical Twilight
Moon
Length of Visible Light
Length of Day
Tomorrow will be .
, % of the Moon is Illuminated

Today's Extremes

State Highs State Lows

Community

WunderPhotos

Upload Photos

1,891,412 photos uploaded!

WunderBlog® & News

Nearby

Air Quality

  Air Quality AQ Index Pollutant
Not available.

Snow Depth

Station Depth Elevation

Earthquake Activity

City Distance Mag. Time & Date
Minimum magnitude displayed is 2.5.

Coastal Water Temperatures

Place Temperature

Stations

Nearby Weather Stations

Station Location Temp. Windchill Dew Point Humidity Wind Precip. Elev Updated Type
                   

Watches & Warnings

Wind Advisory
Issued: 2:57 AM CST Feb. 8, 2016 – National Weather Service

... Wind Advisory in effect from 10 am this morning to 6 PM CST
this evening...

* timing... late this morning through early this evening.

* Winds... north 30 to 35 mph with gusts near 40 to 50 mph.

* Impacts... driving may become difficult at times especially on
west and east roadways. Residents should ensure lightweight
outdoor objects are secured.

Precautionary/preparedness actions...

Be careful if you have to travel or if you are working or playing
outside.